sensor_id;sensor_type;location;lat;lon;timestamp;P1;durP1;ratioP1;P2;durP2;ratioP2
291;SDS011;23311;48.776;9.162;2023-05-07T00:01:29;3.63;;;3.47;;
291;SDS011;23311;48.776;9.162;2023-05-07T00:03:57;4.40;;;4.10;;
291;SDS011;23311;48.776;9.162;2023-05-07T00:06:26;7.47;;;4.63;;
291;SDS011;23311;48.776;9.162;2023-05-07T00:08:56;4.73;;;4.00;;
291;SDS011;23311;48.776;9.162;2023-05-07T00:11:24;5.17;;;3.90;;
291;SDS011;23311;48.776;9.162;2023-05-07T00:13:53;5.93;;;4.50;;
291;SDS011;23311;48.776;9.162;2023-05-07T00:16:22;4.20;;;3.83;;
291;SDS011;23311;48.776;9.162;2023-05-07T00:18:50;6.17;;;4.13;;
291;SDS011;23311;48.776;9.162;2023-05-07T00:21:19;5.93;;;4.40;;
291;SDS011;23311;48.776;9.162;2023-05-07T00:23:47;6.40;;;4.13;;
291;SDS011;23311;48.776;9.162;2023-05-07T00:26:16;6.80;;;4.30;;
291;SDS011;23311;48.776;9.162;2023-05-07T00:28:44;4.70;;;3.30;;
291;SDS011;23311;48.776;9.162;2023-05-07T00:31:12;4.73;;;3.30;;
291;SDS011;23311;48.776;9.162;2023-05-07T00:33:41;4.83;;;4.53;;
291;SDS011;23311;48.776;9.162;2023-05-07T00:36:09;4.77;;;4.30;;
291;SDS011;23311;48.776;9.162;2023-05-07T00:38:37;5.50;;;4.10;;
291;SDS011;23311;48.776;9.162;2023-05-07T00:41:05;5.63;;;3.83;;
291;SDS011;23311;48.776;9.162;2023-05-07T00:43:33;5.97;;;3.97;;
291;SDS011;23311;48.776;9.162;2023-05-07T00:46:01;4.47;;;4.20;;
291;SDS011;23311;48.776;9.162;2023-05-07T00:48:30;4.97;;;4.50;;
291;SDS011;23311;48.776;9.162;2023-05-07T00:51:00;6.20;;;5.17;;
291;SDS011;23311;48.776;9.162;2023-05-07T00:53:28;5.00;;;4.70;;
291;SDS011;23311;48.776;9.162;2023-05-07T00:55:57;6.07;;;4.20;;
291;SDS011;23311;48.776;9.162;2023-05-07T00:58:27;5.60;;;4.10;;
291;SDS011;23311;48.776;9.162;2023-05-07T01:00:55;4.50;;;4.20;;
291;SDS011;23311;48.776;9.162;2023-05-07T01:03:24;4.17;;;3.83;;
291;SDS011;23311;48.776;9.162;2023-05-07T01:05:53;4.60;;;3.53;;
291;SDS011;23311;48.776;9.162;2023-05-07T01:08:25;6.10;;;4.20;;
291;SDS011;23311;48.776;9.162;2023-05-07T01:10:55;4.77;;;4.03;;
291;SDS011;23311;48.776;9.162;2023-05-07T01:13:24;5.00;;;4.70;;
291;SDS011;23311;48.776;9.162;2023-05-07T01:15:52;5.80;;;4.50;;
291;SDS011;23311;48.776;9.162;2023-05-07T01:18:21;5.00;;;4.40;;
291;SDS011;23311;48.776;9.162;2023-05-07T01:20:49;4.60;;;4.27;;
291;SDS011;23311;48.776;9.162;2023-05-07T01:23:19;5.57;;;4.47;;
291;SDS011;23311;48.776;9.162;2023-05-07T01:25:50;4.50;;;3.80;;
291;SDS011;23311;48.776;9.162;2023-05-07T01:28:19;4.37;;;4.10;;
291;SDS011;23311;48.776;9.162;2023-05-07T01:30:48;5.97;;;5.10;;
291;SDS011;23311;48.776;9.162;2023-05-07T01:33:20;4.33;;;3.93;;
291;SDS011;23311;48.776;9.162;2023-05-07T01:35:50;4.50;;;4.20;;
291;SDS011;23311;48.776;9.162;2023-05-07T01:38:21;5.50;;;4.97;;
291;SDS011;23311;48.776;9.162;2023-05-07T01:40:50;6.40;;;4.77;;
291;SDS011;23311;48.776;9.162;2023-05-07T01:43:19;6.07;;;5.27;;
291;SDS011;23311;48.776;9.162;2023-05-07T01:45:47;5.43;;;5.03;;
291;SDS011;23311;48.776;9.162;2023-05-07T01:48:16;5.63;;;4.93;;
291;SDS011;23311;48.776;9.162;2023-05-07T01:50:45;6.97;;;5.20;;
291;SDS011;23311;48.776;9.162;2023-05-07T01:53:14;7.30;;;5.00;;
291;SDS011;23311;48.776;9.162;2023-05-07T01:55:43;7.87;;;5.70;;
291;SDS011;23311;48.776;9.162;2023-05-07T01:58:12;6.10;;;5.13;;
291;SDS011;23311;48.776;9.162;2023-05-07T02:00:40;8.20;;;4.87;;
291;SDS011;23311;48.776;9.162;2023-05-07T02:03:08;6.17;;;5.10;;
291;SDS011;23311;48.776;9.162;2023-05-07T02:05:36;5.97;;;5.27;;
291;SDS011;23311;48.776;9.162;2023-05-07T02:08:04;6.73;;;4.97;;
291;SDS011;23311;48.776;9.162;2023-05-07T02:10:32;7.37;;;5.77;;
291;SDS011;23311;48.776;9.162;2023-05-07T02:13:03;6.60;;;4.73;;
291;SDS011;23311;48.776;9.162;2023-05-07T02:15:32;6.70;;;5.13;;
291;SDS011;23311;48.776;9.162;2023-05-07T02:18:02;6.50;;;4.83;;
291;SDS011;23311;48.776;9.162;2023-05-07T02:20:31;5.13;;;4.83;;
291;SDS011;23311;48.776;9.162;2023-05-07T02:22:59;6.40;;;5.83;;
291;SDS011;23311;48.776;9.162;2023-05-07T02:25:27;7.30;;;5.30;;
291;SDS011;23311;48.776;9.162;2023-05-07T02:27:56;5.37;;;5.00;;
291;SDS011;23311;48.776;9.162;2023-05-07T02:30:26;6.90;;;5.77;;
291;SDS011;23311;48.776;9.162;2023-05-07T02:32:54;4.90;;;4.63;;
291;SDS011;23311;48.776;9.162;2023-05-07T02:35:23;6.67;;;4.93;;
291;SDS011;23311;48.776;9.162;2023-05-07T02:37:52;7.63;;;5.50;;
291;SDS011;23311;48.776;9.162;2023-05-07T02:40:20;4.90;;;4.53;;
291;SDS011;23311;48.776;9.162;2023-05-07T02:42:48;5.70;;;4.63;;
291;SDS011;23311;48.776;9.162;2023-05-07T02:45:16;6.67;;;5.23;;
291;SDS011;23311;48.776;9.162;2023-05-07T02:47:45;5.30;;;4.87;;
291;SDS011;23311;48.776;9.162;2023-05-07T02:50:13;4.67;;;4.37;;
291;SDS011;23311;48.776;9.162;2023-05-07T02:52:44;5.10;;;4.47;;
291;SDS011;23311;48.776;9.162;2023-05-07T02:55:13;5.20;;;4.70;;
291;SDS011;23311;48.776;9.162;2023-05-07T02:57:41;7.63;;;5.47;;
291;SDS011;23311;48.776;9.162;2023-05-07T03:00:10;5.37;;;5.13;;
291;SDS011;23311;48.776;9.162;2023-05-07T03:02:39;6.00;;;5.40;;
291;SDS011;23311;48.776;9.162;2023-05-07T03:05:08;6.20;;;5.27;;
291;SDS011;23311;48.776;9.162;2023-05-07T03:07:37;5.57;;;5.27;;
291;SDS011;23311;48.776;9.162;2023-05-07T03:10:05;5.60;;;4.87;;
291;SDS011;23311;48.776;9.162;2023-05-07T03:12:34;5.50;;;4.90;;
291;SDS011;23311;48.776;9.162;2023-05-07T03:15:03;4.80;;;4.50;;
291;SDS011;23311;48.776;9.162;2023-05-07T03:17:31;7.10;;;4.70;;
291;SDS011;23311;48.776;9.162;2023-05-07T03:19:59;5.13;;;4.60;;
291;SDS011;23311;48.776;9.162;2023-05-07T03:22:29;6.73;;;5.20;;
291;SDS011;23311;48.776;9.162;2023-05-07T03:24:56;8.50;;;6.03;;
291;SDS011;23311;48.776;9.162;2023-05-07T03:27:24;5.70;;;5.40;;
291;SDS011;23311;48.776;9.162;2023-05-07T03:29:53;6.40;;;4.80;;
291;SDS011;23311;48.776;9.162;2023-05-07T03:32:21;5.77;;;4.80;;
291;SDS011;23311;48.776;9.162;2023-05-07T03:34:49;7.93;;;5.50;;
291;SDS011;23311;48.776;9.162;2023-05-07T03:37:17;6.50;;;6.10;;
291;SDS011;23311;48.776;9.162;2023-05-07T03:39:46;6.10;;;5.27;;
291;SDS011;23311;48.776;9.162;2023-05-07T03:42:14;6.03;;;5.70;;
291;SDS011;23311;48.776;9.162;2023-05-07T03:44:42;5.90;;;5.60;;
291;SDS011;23311;48.776;9.162;2023-05-07T03:47:10;6.27;;;5.57;;
291;SDS011;23311;48.776;9.162;2023-05-07T03:49:39;6.37;;;5.50;;
291;SDS011;23311;48.776;9.162;2023-05-07T03:52:07;6.53;;;5.50;;
291;SDS011;23311;48.776;9.162;2023-05-07T03:54:35;5.50;;;5.00;;
291;SDS011;23311;48.776;9.162;2023-05-07T03:57:05;6.50;;;4.50;;
291;SDS011;23311;48.776;9.162;2023-05-07T03:59:33;5.13;;;4.50;;
291;SDS011;23311;48.776;9.162;2023-05-07T04:02:01;7.40;;;4.83;;
291;SDS011;23311;48.776;9.162;2023-05-07T04:04:31;4.70;;;4.03;;
291;SDS011;23311;48.776;9.162;2023-05-07T04:06:59;6.27;;;5.30;;
291;SDS011;23311;48.776;9.162;2023-05-07T04:09:27;5.40;;;5.10;;
291;SDS011;23311;48.776;9.162;2023-05-07T04:11:55;4.63;;;4.30;;
291;SDS011;23311;48.776;9.162;2023-05-07T04:14:25;4.97;;;4.47;;
291;SDS011;23311;48.776;9.162;2023-05-07T04:16:53;5.93;;;5.07;;
291;SDS011;23311;48.776;9.162;2023-05-07T04:19:21;7.57;;;5.03;;
291;SDS011;23311;48.776;9.162;2023-05-07T04:21:49;6.13;;;5.40;;
291;SDS011;23311;48.776;9.162;2023-05-07T04:24:17;5.30;;;5.00;;
291;SDS011;23311;48.776;9.162;2023-05-07T04:26:45;6.80;;;5.00;;
291;SDS011;23311;48.776;9.162;2023-05-07T04:29:13;5.27;;;5.00;;
291;SDS011;23311;48.776;9.162;2023-05-07T04:31:43;5.20;;;5.00;;
291;SDS011;23311;48.776;9.162;2023-05-07T04:34:11;5.50;;;4.80;;
291;SDS011;23311;48.776;9.162;2023-05-07T04:36:41;7.47;;;5.43;;
291;SDS011;23311;48.776;9.162;2023-05-07T04:39:09;4.33;;;4.10;;
291;SDS011;23311;48.776;9.162;2023-05-07T04:41:37;4.17;;;3.93;;
291;SDS011;23311;48.776;9.162;2023-05-07T04:44:06;4.63;;;4.30;;
291;SDS011;23311;48.776;9.162;2023-05-07T04:46:35;4.17;;;3.80;;
291;SDS011;23311;48.776;9.162;2023-05-07T04:49:04;4.50;;;4.20;;
291;SDS011;23311;48.776;9.162;2023-05-07T04:51:33;4.60;;;4.10;;
291;SDS011;23311;48.776;9.162;2023-05-07T04:54:01;8.23;;;5.10;;
291;SDS011;23311;48.776;9.162;2023-05-07T04:56:29;6.57;;;5.10;;
291;SDS011;23311;48.776;9.162;2023-05-07T04:58:57;5.40;;;4.20;;
291;SDS011;23311;48.776;9.162;2023-05-07T05:01:25;5.10;;;4.80;;
291;SDS011;23311;48.776;9.162;2023-05-07T05:03:53;4.73;;;4.27;;
291;SDS011;23311;48.776;9.162;2023-05-07T05:06:22;7.73;;;4.37;;
291;SDS011;23311;48.776;9.162;2023-05-07T05:08:51;5.30;;;4.60;;
291;SDS011;23311;48.776;9.162;2023-05-07T05:11:19;5.83;;;4.50;;
291;SDS011;23311;48.776;9.162;2023-05-07T05:13:47;5.30;;;4.97;;
291;SDS011;23311;48.776;9.162;2023-05-07T05:16:15;5.50;;;5.27;;
291;SDS011;23311;48.776;9.162;2023-05-07T05:18:43;8.23;;;5.60;;
291;SDS011;23311;48.776;9.162;2023-05-07T05:21:11;5.27;;;4.97;;
291;SDS011;23311;48.776;9.162;2023-05-07T05:23:41;5.17;;;4.97;;
291;SDS011;23311;48.776;9.162;2023-05-07T05:26:09;6.07;;;5.77;;
291;SDS011;23311;48.776;9.162;2023-05-07T05:28:37;10.67;;;5.70;;
291;SDS011;23311;48.776;9.162;2023-05-07T05:31:05;7.57;;;4.80;;
291;SDS011;23311;48.776;9.162;2023-05-07T05:33:33;5.73;;;4.87;;
291;SDS011;23311;48.776;9.162;2023-05-07T05:36:01;7.80;;;4.83;;
291;SDS011;23311;48.776;9.162;2023-05-07T05:38:30;5.67;;;5.10;;
291;SDS011;23311;48.776;9.162;2023-05-07T05:40:59;5.47;;;5.17;;
291;SDS011;23311;48.776;9.162;2023-05-07T05:43:27;5.83;;;4.60;;
291;SDS011;23311;48.776;9.162;2023-05-07T05:45:55;8.50;;;5.57;;
291;SDS011;23311;48.776;9.162;2023-05-07T05:48:24;5.30;;;5.07;;
291;SDS011;23311;48.776;9.162;2023-05-07T05:50:52;6.03;;;4.60;;
291;SDS011;23311;48.776;9.162;2023-05-07T05:53:20;8.20;;;5.40;;
291;SDS011;23311;48.776;9.162;2023-05-07T05:55:48;6.00;;;5.13;;
291;SDS011;23311;48.776;9.162;2023-05-07T05:58:19;6.30;;;5.20;;
291;SDS011;23311;48.776;9.162;2023-05-07T06:00:47;5.43;;;4.77;;
291;SDS011;23311;48.776;9.162;2023-05-07T06:03:18;5.40;;;5.10;;
291;SDS011;23311;48.776;9.162;2023-05-07T06:05:46;6.30;;;4.83;;
291;SDS011;23311;48.776;9.162;2023-05-07T06:08:14;5.60;;;5.30;;
291;SDS011;23311;48.776;9.162;2023-05-07T06:10:43;5.83;;;5.57;;
291;SDS011;23311;48.776;9.162;2023-05-07T06:13:11;5.43;;;4.53;;
291;SDS011;23311;48.776;9.162;2023-05-07T06:15:41;7.63;;;4.73;;
291;SDS011;23311;48.776;9.162;2023-05-07T06:18:09;5.43;;;4.83;;
291;SDS011;23311;48.776;9.162;2023-05-07T06:20:37;6.93;;;5.47;;
291;SDS011;23311;48.776;9.162;2023-05-07T06:23:05;5.93;;;4.67;;
291;SDS011;23311;48.776;9.162;2023-05-07T06:25:33;4.93;;;4.63;;
291;SDS011;23311;48.776;9.162;2023-05-07T06:28:01;5.30;;;5.03;;
291;SDS011;23311;48.776;9.162;2023-05-07T06:30:29;7.50;;;5.40;;
291;SDS011;23311;48.776;9.162;2023-05-07T06:32:58;4.93;;;4.63;;
291;SDS011;23311;48.776;9.162;2023-05-07T06:35:26;4.97;;;4.53;;
291;SDS011;23311;48.776;9.162;2023-05-07T06:37:54;6.90;;;5.13;;
291;SDS011;23311;48.776;9.162;2023-05-07T06:40:22;4.40;;;4.10;;
291;SDS011;23311;48.776;9.162;2023-05-07T06:42:51;5.00;;;4.70;;
291;SDS011;23311;48.776;9.162;2023-05-07T06:45:19;5.07;;;4.60;;
291;SDS011;23311;48.776;9.162;2023-05-07T06:47:47;6.53;;;5.33;;
291;SDS011;23311;48.776;9.162;2023-05-07T06:50:16;5.60;;;5.30;;
291;SDS011;23311;48.776;9.162;2023-05-07T06:52:45;5.40;;;4.67;;
291;SDS011;23311;48.776;9.162;2023-05-07T06:55:13;4.67;;;4.10;;
291;SDS011;23311;48.776;9.162;2023-05-07T06:57:41;5.73;;;4.70;;
291;SDS011;23311;48.776;9.162;2023-05-07T07:00:09;5.27;;;4.60;;
291;SDS011;23311;48.776;9.162;2023-05-07T07:02:39;4.83;;;4.53;;
291;SDS011;23311;48.776;9.162;2023-05-07T07:05:07;6.27;;;5.50;;
291;SDS011;23311;48.776;9.162;2023-05-07T07:07:37;6.10;;;5.07;;
291;SDS011;23311;48.776;9.162;2023-05-07T07:10:05;5.70;;;5.40;;
291;SDS011;23311;48.776;9.162;2023-05-07T07:12:34;5.93;;;4.63;;
291;SDS011;23311;48.776;9.162;2023-05-07T07:15:03;5.27;;;4.63;;
291;SDS011;23311;48.776;9.162;2023-05-07T07:17:31;4.47;;;4.20;;
291;SDS011;23311;48.776;9.162;2023-05-07T07:19:59;4.90;;;4.60;;
291;SDS011;23311;48.776;9.162;2023-05-07T07:22:28;4.60;;;4.30;;
291;SDS011;23311;48.776;9.162;2023-05-07T07:24:58;5.27;;;4.40;;
291;SDS011;23311;48.776;9.162;2023-05-07T07:27:26;4.03;;;3.83;;
291;SDS011;23311;48.776;9.162;2023-05-07T07:29:54;4.83;;;4.50;;
291;SDS011;23311;48.776;9.162;2023-05-07T07:32:22;4.73;;;4.33;;
291;SDS011;23311;48.776;9.162;2023-05-07T07:34:50;4.13;;;3.87;;
291;SDS011;23311;48.776;9.162;2023-05-07T07:37:18;5.30;;;4.33;;
291;SDS011;23311;48.776;9.162;2023-05-07T07:39:46;5.20;;;4.23;;
291;SDS011;23311;48.776;9.162;2023-05-07T07:42:15;4.83;;;4.40;;
291;SDS011;23311;48.776;9.162;2023-05-07T07:44:44;4.60;;;4.30;;
291;SDS011;23311;48.776;9.162;2023-05-07T07:47:12;4.80;;;4.13;;
291;SDS011;23311;48.776;9.162;2023-05-07T07:49:40;4.53;;;4.27;;
291;SDS011;23311;48.776;9.162;2023-05-07T07:52:08;4.57;;;4.27;;
291;SDS011;23311;48.776;9.162;2023-05-07T07:54:36;4.40;;;4.10;;
291;SDS011;23311;48.776;9.162;2023-05-07T07:57:04;4.70;;;4.40;;
291;SDS011;23311;48.776;9.162;2023-05-07T07:59:34;7.50;;;3.80;;
291;SDS011;23311;48.776;9.162;2023-05-07T08:02:02;4.40;;;3.90;;
291;SDS011;23311;48.776;9.162;2023-05-07T08:04:30;4.50;;;4.20;;
291;SDS011;23311;48.776;9.162;2023-05-07T08:06:59;4.27;;;3.70;;
291;SDS011;23311;48.776;9.162;2023-05-07T08:09:27;4.60;;;4.30;;
291;SDS011;23311;48.776;9.162;2023-05-07T08:11:55;5.30;;;5.07;;
291;SDS011;23311;48.776;9.162;2023-05-07T08:14:23;5.30;;;4.83;;
291;SDS011;23311;48.776;9.162;2023-05-07T08:16:53;4.73;;;3.70;;
291;SDS011;23311;48.776;9.162;2023-05-07T08:19:21;11.60;;;4.37;;
291;SDS011;23311;48.776;9.162;2023-05-07T08:21:50;3.93;;;3.67;;
291;SDS011;23311;48.776;9.162;2023-05-07T08:24:18;4.33;;;4.03;;
291;SDS011;23311;48.776;9.162;2023-05-07T08:26:46;4.57;;;4.27;;
291;SDS011;23311;48.776;9.162;2023-05-07T08:29:14;5.30;;;4.67;;
291;SDS011;23311;48.776;9.162;2023-05-07T08:31:42;5.00;;;4.73;;
291;SDS011;23311;48.776;9.162;2023-05-07T08:34:12;3.97;;;3.80;;
291;SDS011;23311;48.776;9.162;2023-05-07T08:36:40;4.63;;;3.83;;
291;SDS011;23311;48.776;9.162;2023-05-07T08:39:08;3.40;;;3.10;;
291;SDS011;23311;48.776;9.162;2023-05-07T08:41:36;2.93;;;2.80;;
291;SDS011;23311;48.776;9.162;2023-05-07T08:44:05;3.20;;;3.00;;
291;SDS011;23311;48.776;9.162;2023-05-07T08:46:39;4.97;;;3.30;;
291;SDS011;23311;48.776;9.162;2023-05-07T08:49:08;3.33;;;2.67;;
291;SDS011;23311;48.776;9.162;2023-05-07T08:51:38;4.90;;;2.70;;
291;SDS011;23311;48.776;9.162;2023-05-07T08:54:06;2.57;;;2.40;;
291;SDS011;23311;48.776;9.162;2023-05-07T08:56:34;2.63;;;2.50;;
291;SDS011;23311;48.776;9.162;2023-05-07T08:59:02;3.40;;;3.03;;
291;SDS011;23311;48.776;9.162;2023-05-07T09:01:30;2.23;;;2.03;;
291;SDS011;23311;48.776;9.162;2023-05-07T09:03:58;3.90;;;2.63;;
291;SDS011;23311;48.776;9.162;2023-05-07T09:06:26;4.37;;;2.57;;
291;SDS011;23311;48.776;9.162;2023-05-07T09:08:56;5.53;;;2.90;;
291;SDS011;23311;48.776;9.162;2023-05-07T09:11:24;3.13;;;2.43;;
291;SDS011;23311;48.776;9.162;2023-05-07T09:13:53;2.57;;;2.30;;
291;SDS011;23311;48.776;9.162;2023-05-07T09:16:22;4.00;;;2.30;;
291;SDS011;23311;48.776;9.162;2023-05-07T09:18:51;3.40;;;2.20;;
291;SDS011;23311;48.776;9.162;2023-05-07T09:21:21;3.40;;;2.70;;
291;SDS011;23311;48.776;9.162;2023-05-07T09:23:50;2.53;;;2.37;;
291;SDS011;23311;48.776;9.162;2023-05-07T09:26:22;3.27;;;2.60;;
291;SDS011;23311;48.776;9.162;2023-05-07T09:28:51;2.63;;;2.00;;
291;SDS011;23311;48.776;9.162;2023-05-07T09:31:19;2.70;;;1.83;;
291;SDS011;23311;48.776;9.162;2023-05-07T09:33:49;2.83;;;2.53;;
291;SDS011;23311;48.776;9.162;2023-05-07T09:36:18;2.63;;;2.20;;
291;SDS011;23311;48.776;9.162;2023-05-07T09:38:46;3.67;;;2.23;;
291;SDS011;23311;48.776;9.162;2023-05-07T09:41:14;2.23;;;2.10;;
291;SDS011;23311;48.776;9.162;2023-05-07T09:43:43;3.30;;;1.60;;
291;SDS011;23311;48.776;9.162;2023-05-07T09:46:12;3.90;;;2.57;;
291;SDS011;23311;48.776;9.162;2023-05-07T09:48:43;2.30;;;2.10;;
291;SDS011;23311;48.776;9.162;2023-05-07T09:51:15;2.07;;;1.80;;
291;SDS011;23311;48.776;9.162;2023-05-07T09:53:48;2.80;;;1.97;;
291;SDS011;23311;48.776;9.162;2023-05-07T09:56:19;7.43;;;2.60;;
291;SDS011;23311;48.776;9.162;2023-05-07T09:58:48;2.30;;;1.90;;
291;SDS011;23311;48.776;9.162;2023-05-07T10:01:19;2.60;;;1.70;;
291;SDS011;23311;48.776;9.162;2023-05-07T10:03:49;2.43;;;2.27;;
291;SDS011;23311;48.776;9.162;2023-05-07T10:06:18;3.83;;;3.27;;
291;SDS011;23311;48.776;9.162;2023-05-07T10:08:48;6.90;;;5.90;;
291;SDS011;23311;48.776;9.162;2023-05-07T10:11:18;6.70;;;2.70;;
291;SDS011;23311;48.776;9.162;2023-05-07T10:13:46;2.73;;;1.90;;
291;SDS011;23311;48.776;9.162;2023-05-07T10:16:17;2.67;;;2.37;;
291;SDS011;23311;48.776;9.162;2023-05-07T10:18:46;2.67;;;2.57;;
291;SDS011;23311;48.776;9.162;2023-05-07T10:21:16;4.10;;;2.50;;
291;SDS011;23311;48.776;9.162;2023-05-07T10:23:45;3.00;;;2.60;;
291;SDS011;23311;48.776;9.162;2023-05-07T10:26:17;2.20;;;1.80;;
291;SDS011;23311;48.776;9.162;2023-05-07T10:28:48;1.90;;;1.90;;
291;SDS011;23311;48.776;9.162;2023-05-07T10:31:25;4.00;;;1.97;;
291;SDS011;23311;48.776;9.162;2023-05-07T10:34:13;4.43;;;2.33;;
291;SDS011;23311;48.776;9.162;2023-05-07T10:36:44;2.57;;;2.30;;
291;SDS011;23311;48.776;9.162;2023-05-07T10:39:12;3.00;;;2.23;;
291;SDS011;23311;48.776;9.162;2023-05-07T10:41:41;3.07;;;2.10;;
291;SDS011;23311;48.776;9.162;2023-05-07T10:44:10;4.00;;;2.40;;
291;SDS011;23311;48.776;9.162;2023-05-07T10:46:38;2.53;;;2.33;;
291;SDS011;23311;48.776;9.162;2023-05-07T10:49:10;2.97;;;2.77;;
291;SDS011;23311;48.776;9.162;2023-05-07T10:51:39;2.40;;;2.23;;
291;SDS011;23311;48.776;9.162;2023-05-07T10:54:18;3.47;;;2.70;;
291;SDS011;23311;48.776;9.162;2023-05-07T10:56:47;5.20;;;2.60;;
291;SDS011;23311;48.776;9.162;2023-05-07T11:02:10;2.63;;;2.47;;
291;SDS011;23311;48.776;9.162;2023-05-07T11:04:40;3.03;;;2.77;;
291;SDS011;23311;48.776;9.162;2023-05-07T11:07:24;3.50;;;2.83;;
291;SDS011;23311;48.776;9.162;2023-05-07T11:09:54;3.67;;;2.10;;
291;SDS011;23311;48.776;9.162;2023-05-07T11:12:48;2.70;;;2.10;;
291;SDS011;23311;48.776;9.162;2023-05-07T11:18:03;2.17;;;2.00;;
291;SDS011;23311;48.776;9.162;2023-05-07T11:20:51;3.80;;;2.53;;
291;SDS011;23311;48.776;9.162;2023-05-07T11:26:44;2.53;;;1.90;;
291;SDS011;23311;48.776;9.162;2023-05-07T11:29:14;2.73;;;2.53;;
291;SDS011;23311;48.776;9.162;2023-05-07T11:31:51;4.27;;;3.07;;
291;SDS011;23311;48.776;9.162;2023-05-07T11:34:21;2.80;;;2.20;;
291;SDS011;23311;48.776;9.162;2023-05-07T11:36:50;3.33;;;2.20;;
291;SDS011;23311;48.776;9.162;2023-05-07T11:39:26;2.40;;;2.30;;
291;SDS011;23311;48.776;9.162;2023-05-07T11:41:55;4.03;;;2.13;;
291;SDS011;23311;48.776;9.162;2023-05-07T11:44:23;3.30;;;2.53;;
291;SDS011;23311;48.776;9.162;2023-05-07T11:46:52;4.77;;;3.50;;
291;SDS011;23311;48.776;9.162;2023-05-07T11:49:24;3.00;;;2.80;;
291;SDS011;23311;48.776;9.162;2023-05-07T11:51:53;3.00;;;2.63;;
291;SDS011;23311;48.776;9.162;2023-05-07T11:54:22;6.43;;;3.07;;
291;SDS011;23311;48.776;9.162;2023-05-07T11:56:50;3.77;;;2.53;;
291;SDS011;23311;48.776;9.162;2023-05-07T11:59:20;8.07;;;3.07;;
291;SDS011;23311;48.776;9.162;2023-05-07T12:01:50;3.40;;;3.20;;
291;SDS011;23311;48.776;9.162;2023-05-07T12:04:23;5.00;;;4.30;;
291;SDS011;23311;48.776;9.162;2023-05-07T12:06:53;4.73;;;3.60;;
291;SDS011;23311;48.776;9.162;2023-05-07T12:09:21;5.70;;;3.90;;
291;SDS011;23311;48.776;9.162;2023-05-07T12:11:51;10.17;;;4.83;;
291;SDS011;23311;48.776;9.162;2023-05-07T12:14:19;6.87;;;4.97;;
291;SDS011;23311;48.776;9.162;2023-05-07T12:16:47;4.53;;;3.07;;
291;SDS011;23311;48.776;9.162;2023-05-07T12:19:16;4.83;;;2.20;;
291;SDS011;23311;48.776;9.162;2023-05-07T12:21:45;4.37;;;2.47;;
291;SDS011;23311;48.776;9.162;2023-05-07T12:24:14;2.77;;;2.30;;
291;SDS011;23311;48.776;9.162;2023-05-07T12:26:43;3.90;;;2.63;;
291;SDS011;23311;48.776;9.162;2023-05-07T12:29:11;3.77;;;2.90;;
291;SDS011;23311;48.776;9.162;2023-05-07T12:31:40;8.83;;;3.87;;
291;SDS011;23311;48.776;9.162;2023-05-07T12:34:08;9.30;;;4.93;;
291;SDS011;23311;48.776;9.162;2023-05-07T12:36:39;8.60;;;4.80;;
291;SDS011;23311;48.776;9.162;2023-05-07T12:39:08;7.93;;;4.60;;
291;SDS011;23311;48.776;9.162;2023-05-07T12:41:36;8.47;;;5.20;;
291;SDS011;23311;48.776;9.162;2023-05-07T12:44:21;8.40;;;5.13;;
291;SDS011;23311;48.776;9.162;2023-05-07T12:46:50;8.97;;;4.73;;
291;SDS011;23311;48.776;9.162;2023-05-07T12:49:18;6.23;;;4.37;;
291;SDS011;23311;48.776;9.162;2023-05-07T12:51:51;5.60;;;4.03;;
291;SDS011;23311;48.776;9.162;2023-05-07T12:54:27;4.57;;;2.13;;
291;SDS011;23311;48.776;9.162;2023-05-07T12:57:00;10.17;;;3.50;;
291;SDS011;23311;48.776;9.162;2023-05-07T12:59:32;6.10;;;2.10;;
291;SDS011;23311;48.776;9.162;2023-05-07T13:02:01;2.70;;;1.17;;
291;SDS011;23311;48.776;9.162;2023-05-07T13:04:29;2.10;;;1.20;;
291;SDS011;23311;48.776;9.162;2023-05-07T13:06:59;6.10;;;2.50;;
291;SDS011;23311;48.776;9.162;2023-05-07T13:09:27;4.53;;;2.73;;
291;SDS011;23311;48.776;9.162;2023-05-07T13:11:55;4.13;;;2.90;;
291;SDS011;23311;48.776;9.162;2023-05-07T13:14:26;3.43;;;3.20;;
291;SDS011;23311;48.776;9.162;2023-05-07T13:16:54;5.23;;;2.53;;
291;SDS011;23311;48.776;9.162;2023-05-07T13:19:22;3.87;;;2.50;;
291;SDS011;23311;48.776;9.162;2023-05-07T13:21:50;3.13;;;2.20;;
291;SDS011;23311;48.776;9.162;2023-05-07T13:24:19;2.80;;;1.70;;
291;SDS011;23311;48.776;9.162;2023-05-07T13:26:47;4.43;;;3.17;;
291;SDS011;23311;48.776;9.162;2023-05-07T13:29:16;4.30;;;2.10;;
291;SDS011;23311;48.776;9.162;2023-05-07T13:31:44;4.17;;;2.23;;
291;SDS011;23311;48.776;9.162;2023-05-07T13:34:14;2.80;;;2.40;;
291;SDS011;23311;48.776;9.162;2023-05-07T13:36:42;2.40;;;2.10;;
291;SDS011;23311;48.776;9.162;2023-05-07T13:39:10;2.20;;;1.90;;
291;SDS011;23311;48.776;9.162;2023-05-07T13:41:39;4.07;;;2.90;;
291;SDS011;23311;48.776;9.162;2023-05-07T13:44:07;5.13;;;2.13;;
291;SDS011;23311;48.776;9.162;2023-05-07T13:46:36;3.60;;;2.20;;
291;SDS011;23311;48.776;9.162;2023-05-07T13:49:04;3.30;;;2.50;;
291;SDS011;23311;48.776;9.162;2023-05-07T13:51:32;3.90;;;2.13;;
291;SDS011;23311;48.776;9.162;2023-05-07T13:54:01;2.93;;;2.03;;
291;SDS011;23311;48.776;9.162;2023-05-07T13:56:29;3.23;;;2.43;;
291;SDS011;23311;48.776;9.162;2023-05-07T13:59:00;4.00;;;2.93;;
291;SDS011;23311;48.776;9.162;2023-05-07T14:01:28;3.20;;;2.20;;
291;SDS011;23311;48.776;9.162;2023-05-07T14:03:56;4.77;;;2.53;;
291;SDS011;23311;48.776;9.162;2023-05-07T14:06:26;2.50;;;1.90;;
291;SDS011;23311;48.776;9.162;2023-05-07T14:08:54;4.80;;;1.73;;
291;SDS011;23311;48.776;9.162;2023-05-07T14:11:24;3.23;;;1.93;;
291;SDS011;23311;48.776;9.162;2023-05-07T14:13:52;3.10;;;2.17;;
291;SDS011;23311;48.776;9.162;2023-05-07T14:16:21;4.97;;;2.33;;
291;SDS011;23311;48.776;9.162;2023-05-07T14:18:50;4.13;;;2.40;;
291;SDS011;23311;48.776;9.162;2023-05-07T14:21:18;3.60;;;3.10;;
291;SDS011;23311;48.776;9.162;2023-05-07T14:23:46;4.93;;;3.63;;
291;SDS011;23311;48.776;9.162;2023-05-07T14:26:14;4.37;;;3.30;;
291;SDS011;23311;48.776;9.162;2023-05-07T14:28:42;4.87;;;4.03;;
291;SDS011;23311;48.776;9.162;2023-05-07T14:31:12;6.03;;;3.90;;
291;SDS011;23311;48.776;9.162;2023-05-07T14:33:42;4.20;;;3.57;;
291;SDS011;23311;48.776;9.162;2023-05-07T14:36:10;4.87;;;3.07;;
291;SDS011;23311;48.776;9.162;2023-05-07T14:38:38;5.47;;;4.13;;
291;SDS011;23311;48.776;9.162;2023-05-07T14:41:06;3.43;;;3.23;;
291;SDS011;23311;48.776;9.162;2023-05-07T14:43:34;3.83;;;3.13;;
291;SDS011;23311;48.776;9.162;2023-05-07T14:46:02;4.80;;;3.40;;
291;SDS011;23311;48.776;9.162;2023-05-07T14:48:30;4.03;;;3.00;;
291;SDS011;23311;48.776;9.162;2023-05-07T14:50:59;2.80;;;2.60;;
291;SDS011;23311;48.776;9.162;2023-05-07T14:53:27;3.60;;;2.93;;
291;SDS011;23311;48.776;9.162;2023-05-07T14:55:55;2.83;;;2.70;;
291;SDS011;23311;48.776;9.162;2023-05-07T14:58:23;4.27;;;2.93;;
291;SDS011;23311;48.776;9.162;2023-05-07T15:00:51;5.00;;;2.60;;
291;SDS011;23311;48.776;9.162;2023-05-07T15:03:19;4.30;;;3.07;;
291;SDS011;23311;48.776;9.162;2023-05-07T15:05:48;3.50;;;2.50;;
291;SDS011;23311;48.776;9.162;2023-05-07T15:08:18;2.93;;;2.73;;
291;SDS011;23311;48.776;9.162;2023-05-07T15:10:46;4.60;;;3.20;;
291;SDS011;23311;48.776;9.162;2023-05-07T15:13:15;2.83;;;2.50;;
291;SDS011;23311;48.776;9.162;2023-05-07T15:15:43;2.50;;;2.20;;
291;SDS011;23311;48.776;9.162;2023-05-07T15:18:12;2.40;;;2.10;;
291;SDS011;23311;48.776;9.162;2023-05-07T15:20:42;4.13;;;2.70;;
291;SDS011;23311;48.776;9.162;2023-05-07T15:23:11;2.63;;;2.40;;
291;SDS011;23311;48.776;9.162;2023-05-07T15:25:41;3.40;;;2.40;;
291;SDS011;23311;48.776;9.162;2023-05-07T15:28:09;6.27;;;2.90;;
291;SDS011;23311;48.776;9.162;2023-05-07T15:30:37;2.90;;;2.70;;
291;SDS011;23311;48.776;9.162;2023-05-07T15:33:05;4.40;;;3.40;;
291;SDS011;23311;48.776;9.162;2023-05-07T15:35:33;3.60;;;2.73;;